Time;durP1;ratioP1;P1;durP2;ratioP2;P2;SDS_P1;SDS_P2;PMS_P1;PMS_P2;Temp;Humidity;BMP_temperature;BMP_pressure;BME280_temperature;BME280_humidity;BME280_pressure;Samples;Min_cycle;Max_cycle;Signal;HPM_P1;HPM_P2
2023/01/17 00:01:04;;;;;;;1.25;1.02;;;5.40;99.90;;;5.16;100.00;97807.88;5212514;28;19944;-65
2023/01/17 00:09:51;;;;;;;1.58;1.20;;;5.50;99.90;;;5.15;100.00;97806.13;5218204;28;20045;-65
2023/01/17 00:12:09;;;;;;;1.67;1.08;;;5.40;99.90;;;5.02;100.00;97814.59;5215595;28;20080;-64
2023/01/17 00:14:41;;;;;;;1.60;1.50;;;5.30;99.90;;;4.97;100.00;97821.47;5225177;28;20420;-64
2023/01/17 00:17:13;;;;;;;2.08;1.35;;;5.30;99.90;;;4.92;100.00;97818.84;5223430;28;20037;-65
2023/01/17 01:34:34;;;;;;;3.35;1.30;;;5.00;99.90;;;4.70;100.00;97945.91;5206112;28;20037;-65
2023/01/17 01:37:06;;;;;;;1.30;0.93;;;5.00;99.90;;;4.61;100.00;97957.81;5207128;28;20073;-65
2023/01/17 01:39:38;;;;;;;2.35;1.10;;;4.90;99.90;;;4.54;100.00;97961.16;5207005;28;20513;-65
2023/01/17 01:42:15;;;;;;;1.00;0.90;;;4.80;99.90;;;4.49;100.00;97957.66;5207264;28;20050;-65
2023/01/17 01:44:49;;;;;;;2.40;1.23;;;4.80;99.90;;;4.46;100.00;97967.94;5205830;28;20041;-65
2023/01/17 01:47:28;;;;;;;1.13;0.98;;;4.80;99.90;;;4.43;100.00;97979.91;5206467;28;20077;-65
2023/01/17 01:50:04;;;;;;;1.55;0.80;;;4.70;99.90;;;4.41;100.00;97969.56;5206686;28;20512;-65
2023/01/17 01:52:42;;;;;;;1.80;0.88;;;4.70;99.90;;;4.43;100.00;97978.19;5206833;28;20049;-65
2023/01/17 01:55:19;;;;;;;1.85;0.90;;;4.80;99.90;;;4.42;100.00;97980.75;5206758;28;20076;-65
2023/01/17 01:57:56;;;;;;;1.88;1.05;;;4.70;99.90;;;4.46;100.00;97998.88;5206792;28;20461;-65
2023/01/17 02:00:33;;;;;;;0.98;0.85;;;4.80;99.90;;;4.56;100.00;97998.19;5206349;28;20037;-65
2023/01/17 02:03:09;;;;;;;2.17;0.70;;;4.80;99.90;;;4.51;100.00;98002.41;5206574;28;20050;-65
2023/01/17 02:05:43;;;;;;;1.10;1.00;;;4.80;99.90;;;4.45;100.00;97996.28;5206696;28;20050;-63
2023/01/17 02:08:18;;;;;;;2.80;0.82;;;4.80;99.90;;;4.42;100.00;98004.84;5206276;28;20128;-65
2023/01/17 02:10:50;;;;;;;2.38;0.95;;;4.70;99.90;;;4.41;100.00;98000.53;5206304;28;20057;-65
2023/01/17 02:13:24;;;;;;;3.15;0.90;;;4.70;99.90;;;4.43;100.00;98009.16;5206331;28;20418;-64
2023/01/17 02:16:05;;;;;;;1.77;0.70;;;4.70;99.90;;;4.44;100.00;98010.91;5206482;28;20536;-64
2023/01/17 02:18:51;;;;;;;2.08;0.90;;;4.80;99.90;;;4.48;100.00;98022.97;5206249;28;20052;-64
2023/01/17 02:21:26;;;;;;;1.20;0.73;;;4.80;99.90;;;4.46;100.00;98019.53;5206343;28;20060;-64
2023/01/17 02:24:44;;;;;;;1.48;0.82;;;4.80;99.90;;;4.49;100.00;98024.72;5206054;28;20405;-64
2023/01/17 02:27:25;;;;;;;0.68;0.60;;;4.80;99.90;;;4.54;100.00;98027.38;5206153;28;20511;-64
2023/01/17 02:30:33;;;;;;;1.55;0.77;;;4.80;99.90;;;4.59;100.00;98034.34;5205707;28;20033;-64
2023/01/17 02:33:25;;;;;;;1.95;0.68;;;4.90;99.90;;;4.66;100.00;98044.75;5206115;28;20563;-64
2023/01/17 02:36:09;;;;;;;2.10;1.00;;;4.90;99.90;;;4.66;100.00;98044.75;5206052;28;20071;-64
2023/01/17 02:38:51;;;;;;;2.95;1.35;;;4.90;99.90;;;4.69;100.00;98044.78;5205801;28;20053;-64
2023/01/17 02:41:30;;;;;;;4.50;1.23;;;5.00;99.90;;;4.67;100.00;98043.88;5205997;28;20076;-64
2023/01/17 02:44:04;;;;;;;2.63;1.10;;;4.90;99.90;;;4.68;100.00;98050.78;5205766;28;20052;-65
2023/01/17 02:46:45;;;;;;;2.95;1.90;;;5.00;99.90;;;4.61;100.00;98054.97;5205918;28;20045;-64
2023/01/17 02:49:21;;;;;;;2.67;1.50;;;4.90;99.90;;;4.58;100.00;98060.97;5205507;28;20112;-64
2023/01/17 02:52:19;;;;;;;3.67;1.50;;;4.90;99.90;;;4.53;100.00;98080.69;5205894;28;20518;-64
2023/01/17 02:55:08;;;;;;;4.50;1.85;;;4.80;99.90;;;4.43;100.00;98075.34;5220997;28;20037;-64
2023/01/17 02:58:08;;;;;;;2.28;1.52;;;4.80;99.90;;;4.31;100.00;98069.16;5205676;28;20037;-64
2023/01/17 03:00:55;;;;;;;2.47;1.40;;;4.70;99.90;;;4.29;100.00;98080.28;5261711;23;20052;-68
2023/01/17 03:03:33;;;;;;;2.55;1.60;;;4.60;99.90;;;4.32;100.00;98085.50;5202501;28;20033;-68
2023/01/17 03:06:11;;;;;;;3.60;1.67;;;4.60;99.90;;;4.29;100.00;98082.84;5186775;28;20053;-68
2023/01/17 03:08:47;;;;;;;1.90;1.30;;;4.60;99.90;;;4.26;100.00;98083.69;5204438;28;20038;-68
2023/01/17 03:11:19;;;;;;;5.00;1.77;;;4.60;99.90;;;4.28;100.00;98091.44;5186743;28;20053;-68
2023/01/17 03:13:55;;;;;;;1.95;1.30;;;4.60;99.90;;;4.30;100.00;98084.59;5204781;28;20056;-68
2023/01/17 03:16:31;;;;;;;4.68;1.73;;;4.60;99.90;;;4.32;100.00;98088.09;5205025;28;20050;-68
2023/01/17 03:19:05;;;;;;;3.47;1.75;;;4.60;99.90;;;4.31;100.00;98088.94;5204298;28;20053;-67
2023/01/17 03:21:37;;;;;;;2.83;1.42;;;4.60;99.90;;;4.31;100.00;98086.34;5204665;28;20053;-67
2023/01/17 03:24:10;;;;;;;2.53;1.45;;;4.60;99.90;;;4.30;100.00;98094.91;5204915;28;20056;-67
2023/01/17 03:26:44;;;;;;;2.83;1.65;;;4.60;99.90;;;4.31;100.00;98097.53;5204733;28;20056;-67
2023/01/17 03:29:16;;;;;;;2.75;1.42;;;4.60;99.90;;;4.33;100.00;98100.13;5204228;28;20041;-67
2023/01/17 03:31:48;;;;;;;2.72;1.73;;;4.60;99.90;;;4.37;100.00;98109.66;5205050;28;20043;-67
2023/01/17 03:34:22;;;;;;;4.22;2.15;;;4.60;99.90;;;4.38;100.00;98107.94;5205215;28;20041;-67
2023/01/17 03:36:54;;;;;;;3.10;1.73;;;4.60;99.90;;;4.39;100.00;98110.53;5204002;28;20065;-67
2023/01/17 03:39:26;;;;;;;2.65;1.33;;;4.60;99.90;;;4.41;100.00;98111.44;5203930;28;20049;-67
2023/01/17 03:41:59;;;;;;;3.40;1.55;;;4.70;99.90;;;4.43;100.00;98120.03;5204215;28;20402;-67
2023/01/17 03:44:33;;;;;;;3.10;1.48;;;4.70;99.90;;;4.46;100.00;98122.69;5204066;28;20064;-67
2023/01/17 03:47:05;;;;;;;2.38;1.55;;;4.70;99.90;;;4.48;100.00;98118.41;5204336;28;20041;-67
2023/01/17 03:49:39;;;;;;;3.00;1.25;;;4.70;99.90;;;4.51;100.00;98125.34;5203965;28;20502;-67
2023/01/17 03:52:11;;;;;;;3.28;1.50;;;4.80;99.90;;;4.53;100.00;98121.09;5204035;28;20463;-68
2023/01/17 03:54:45;;;;;;;1.55;1.02;;;4.80;99.90;;;4.48;100.00;98131.31;5204081;28;20056;-67
2023/01/17 03:57:17;;;;;;;1.67;1.30;;;4.80;99.90;;;4.47;100.00;98134.75;5203987;28;20056;-67
2023/01/17 03:59:49;;;;;;;2.85;1.20;;;4.80;99.90;;;4.49;100.00;98129.59;5203948;28;20260;-68
2023/01/17 04:02:23;;;;;;;4.45;1.45;;;4.80;99.90;;;4.49;100.00;98130.47;5202702;28;20057;-67
2023/01/17 04:04:56;;;;;;;4.15;1.30;;;4.80;99.90;;;4.53;100.00;98137.41;5203909;28;20049;-67
2023/01/17 04:07:28;;;;;;;2.70;1.42;;;4.80;99.90;;;4.53;100.00;98134.84;5203791;28;20041;-68
2023/01/17 04:10:01;;;;;;;2.10;1.25;;;4.80;99.90;;;4.52;100.00;98133.13;5202890;28;20037;-67
2023/01/17 04:12:33;;;;;;;3.08;1.08;;;4.80;99.90;;;4.51;100.00;98139.13;5203786;28;20055;-67
2023/01/17 04:15:07;;;;;;;1.95;1.27;;;4.80;99.90;;;4.49;100.00;98138.19;5203948;28;20124;-68
2023/01/17 04:17:39;;;;;;;3.22;1.17;;;4.80;99.90;;;4.50;100.00;98145.13;5204089;28;20053;-67
2023/01/17 04:20:21;;;;;;;2.35;1.33;;;4.80;99.90;;;4.48;100.00;98138.19;5202112;28;20041;-67
2023/01/17 04:22:54;;;;;;;;;;;4.80;99.90;;;4.46;100.00;98137.31;5204300;28;20053;-65
2023/01/17 04:25:28;;;;;;;2.75;1.13;;;4.70;99.90;;;4.44;100.00;98133.84;5203740;28;19925;-67
2023/01/17 04:28:03;;;;;;;2.40;1.40;;;4.70;99.90;;;4.42;100.00;98131.22;5203547;28;20041;-67
2023/01/17 04:30:35;;;;;;;4.03;1.38;;;4.70;99.90;;;4.38;100.00;98129.44;5203317;28;20044;-67
2023/01/17 04:33:07;;;;;;;1.55;1.08;;;4.70;99.90;;;4.39;100.00;98125.16;5203629;28;20041;-67
2023/01/17 04:35:41;;;;;;;2.75;1.13;;;4.70;99.90;;;4.35;100.00;98131.94;5203575;28;20132;-68
2023/01/17 04:38:13;;;;;;;1.88;1.38;;;4.60;99.90;;;4.33;100.00;98131.94;5203529;28;20144;-67
2023/01/17 04:40:45;;;;;;;4.85;1.73;;;4.60;99.90;;;4.35;100.00;98126.78;5203534;28;20182;-68
2023/01/17 04:43:17;;;;;;;2.90;1.33;;;4.60;99.90;;;4.35;100.00;98121.63;5203369;28;20057;-67
2023/01/17 04:45:55;;;;;;;2.95;1.30;;;4.60;99.90;;;4.35;100.00;98129.38;5204100;28;20045;-68
2023/01/17 04:48:30;;;;;;;3.60;1.50;;;4.60;99.90;;;4.35;100.00;98121.63;5203602;28;20042;-67
2023/01/17 04:51:05;;;;;;;4.07;1.67;;;4.60;99.90;;;4.36;100.00;98131.09;5184940;28;20421;-67
2023/01/17 04:53:37;;;;;;;2.83;1.60;;;4.60;99.90;;;4.31;100.00;98138.78;5203417;28;20052;-67
2023/01/17 04:56:09;;;;;;;3.67;1.52;;;4.60;99.90;;;4.29;100.00;98137.00;5185542;28;20057;-67
2023/01/17 04:58:41;;;;;;;4.40;1.77;;;4.60;99.90;;;4.27;100.00;98139.56;5203075;28;20116;-68
2023/01/17 05:01:13;;;;;;;4.07;1.40;;;4.60;99.90;;;4.24;100.00;98138.66;5203048;28;20390;-67
2023/01/17 05:03:45;;;;;;;4.22;1.67;;;4.50;99.90;;;4.19;100.00;98143.72;5203266;28;20053;-67
2023/01/17 05:06:19;;;;;;;3.13;1.40;;;4.50;99.90;;;4.18;100.00;98143.72;5203505;28;20073;-68
2023/01/17 05:08:51;;;;;;;1.80;1.20;;;4.50;99.90;;;4.17;100.00;98140.22;5203345;28;20048;-67
2023/01/17 05:11:23;;;;;;;3.28;1.77;;;4.50;99.90;;;4.18;100.00;98144.56;5203537;28;20042;-68
2023/01/17 05:13:55;;;;;;;3.15;1.77;;;4.50;99.90;;;4.17;100.00;98147.97;5202940;28;20045;-67
2023/01/17 05:16:28;;;;;;;3.08;1.67;;;4.50;99.90;;;4.18;100.00;98154.03;5203297;28;20045;-67
2023/01/17 05:19:00;;;;;;;2.45;1.30;;;4.40;99.90;;;4.18;100.00;98154.88;5202639;28;20050;-67
2023/01/17 05:21:34;;;;;;;2.67;1.52;;;4.40;99.90;;;4.16;100.00;98143.66;5206640;28;20046;-67
2023/01/17 05:24:07;;;;;;;5.03;1.70;;;4.50;99.90;;;4.17;100.00;98139.38;5207318;28;20498;-67
2023/01/17 05:26:41;;;;;;;6.68;1.85;;;4.40;99.90;;;4.17;100.00;98152.25;5206804;28;20046;-67
2023/01/17 05:29:14;;;;;;;1.77;1.55;;;4.40;99.90;;;4.16;100.00;98158.25;5206643;28;20048;-67
2023/01/17 05:31:46;;;;;;;2.72;1.67;;;4.50;99.90;;;4.16;100.00;98156.53;5206845;28;20045;-67
2023/01/17 05:34:18;;;;;;;3.35;1.80;;;4.40;99.90;;;4.14;100.00;98155.66;5206497;28;20056;-67
2023/01/17 05:36:52;;;;;;;2.70;1.60;;;4.40;99.90;;;4.14;100.00;98154.78;5206567;28;20059;-67
2023/01/17 05:39:25;;;;;;;2.20;1.70;;;4.40;99.90;;;4.13;100.00;98155.63;5206418;28;20041;-67
2023/01/17 05:41:58;;;;;;;2.28;1.65;;;4.40;99.90;;;4.14;100.00;98159.94;5189167;28;20041;-67
2023/01/17 05:44:30;;;;;;;4.43;2.22;;;4.40;99.90;;;4.14;100.00;98165.09;5206478;28;20072;-67
2023/01/17 05:47:02;;;;;;;10.23;3.28;;;4.40;99.90;;;4.13;100.00;98173.69;5206412;28;20042;-68
2023/01/17 05:49:34;;;;;;;8.98;3.20;;;4.40;99.90;;;4.13;100.00;98174.56;5206032;28;20050;-67
2023/01/17 05:52:08;;;;;;;12.07;4.15;;;4.40;99.90;;;4.14;100.00;98170.25;5206571;28;20120;-68
2023/01/17 05:54:41;;;;;;;10.48;3.25;;;4.40;99.90;;;4.13;100.00;98169.41;5206537;28;20132;-68
2023/01/17 05:57:13;;;;;;;7.53;2.90;;;4.40;99.90;;;4.12;100.00;98171.94;5206409;28;20050;-67
2023/01/17 05:59:45;;;;;;;9.02;3.83;;;4.40;99.90;;;4.12;100.00;98177.09;5205833;28;20037;-68
2023/01/17 06:02:17;;;;;;;12.15;3.88;;;4.40;99.90;;;4.12;100.00;98177.09;5206212;28;20049;-67
2023/01/17 06:04:49;;;;;;;13.27;4.15;;;4.40;99.90;;;4.13;100.00;98176.25;5206253;28;20049;-67
2023/01/17 06:07:22;;;;;;;9.88;3.53;;;4.40;99.90;;;4.14;100.00;98181.44;5206190;28;20056;-67
2023/01/17 06:09:54;;;;;;;13.27;4.22;;;4.40;99.90;;;4.14;100.00;98178.00;5205679;28;20041;-67
2023/01/17 06:12:28;;;;;;;10.20;3.63;;;4.40;99.90;;;4.13;100.00;98187.44;5206223;28;20045;-67
2023/01/17 06:15:00;;;;;;;14.20;4.57;;;4.40;99.90;;;4.13;100.00;98182.28;5206034;28;20076;-68
2023/01/17 06:17:32;;;;;;;11.02;4.25;;;4.40;99.90;;;4.12;100.00;98188.28;5205897;28;20046;-67
2023/01/17 06:20:07;;;;;;;11.57;3.83;;;4.40;99.90;;;4.12;100.00;98188.28;5205413;28;20120;-68
2023/01/17 06:22:42;;;;;;;14.52;4.68;;;4.40;99.90;;;4.11;100.00;98195.97;5206338;28;20178;-68
2023/01/17 06:25:14;;;;;;;11.93;4.07;;;4.40;99.90;;;4.09;100.00;98189.06;5206072;28;20526;-67
2023/01/17 06:27:46;;;;;;;11.73;3.95;;;4.40;99.90;;;4.08;100.00;98192.50;5204595;28;20053;-67
2023/01/17 06:30:19;;;;;;;14.50;4.40;;;4.30;99.90;;;4.09;100.00;98201.09;5205347;28;20478;-67
2023/01/17 06:32:54;;;;;;;15.98;5.75;;;4.40;99.90;;;4.06;100.00;98199.34;5204944;28;20041;-67
2023/01/17 06:35:26;;;;;;;;;;;4.30;99.90;;;4.05;100.00;98197.63;5205799;28;20410;-67
2023/01/17 06:38:00;;;;;;;12.00;3.80;;;4.30;99.90;;;4.04;100.00;98200.13;5205399;28;19927;-67
2023/01/17 06:40:33;;;;;;;7.20;3.28;;;4.30;99.90;;;4.04;100.00;98197.56;5205381;28;20124;-68
2023/01/17 06:43:05;;;;;;;7.43;2.80;;;4.30;99.90;;;4.03;100.00;98193.25;5205651;28;20417;-67
2023/01/17 06:45:38;;;;;;;9.65;2.70;;;4.30;99.90;;;4.02;100.00;98194.97;5187450;28;20073;-67
2023/01/17 06:48:10;;;;;;;5.85;2.22;;;4.30;99.90;;;4.01;100.00;98195.81;5205274;28;20111;-67
2023/01/17 06:50:43;;;;;;;3.72;1.90;;;4.30;99.90;;;4.00;100.00;98199.22;5205036;28;20046;-67
2023/01/17 06:53:17;;;;;;;4.22;2.20;;;4.30;99.90;;;3.97;100.00;98204.31;5205626;28;20390;-70
2023/01/17 06:55:49;;;;;;;3.22;1.70;;;4.30;99.90;;;3.96;100.00;98201.69;5187429;28;20415;-67
2023/01/17 06:58:23;;;;;;;3.03;1.75;;;4.30;99.90;;;3.91;100.00;98201.63;5203688;28;20384;-67
2023/01/17 07:00:55;;;;;;;2.42;1.30;;;4.20;99.90;;;3.87;100.00;98201.53;5204809;28;20079;-67
2023/01/17 07:03:27;;;;;;;2.42;1.50;;;4.20;99.90;;;3.83;100.00;98205.75;5205351;28;20064;-66
2023/01/17 07:06:02;;;;;;;2.38;1.30;;;4.10;99.90;;;3.81;100.00;98207.44;5205538;28;20045;-60
2023/01/17 07:08:36;;;;;;;2.88;1.42;;;4.10;99.90;;;3.79;100.00;98220.28;5205303;28;20521;-59
2023/01/17 07:11:08;;;;;;;2.17;1.40;;;4.10;99.90;;;3.78;100.00;98223.72;5204867;28;20053;-60
2023/01/17 07:13:41;;;;;;;2.47;1.55;;;4.00;99.90;;;3.77;100.00;98218.50;5204735;28;20053;-60
2023/01/17 07:16:13;;;;;;;5.65;2.88;;;4.00;99.90;;;3.76;100.00;98221.91;5204039;28;20152;-59
2023/01/17 07:18:45;;;;;;;8.38;4.70;;;4.10;99.90;;;3.74;100.00;98221.91;5203767;28;20060;-60
2023/01/17 07:21:17;;;;;;;5.32;3.80;;;4.00;99.90;;;3.74;100.00;98218.44;5204616;28;20069;-59
2023/01/17 07:23:50;;;;;;;12.60;4.63;;;4.00;99.90;;;3.72;100.00;98213.28;5204547;28;20045;-59
2023/01/17 07:26:22;;;;;;;6.05;3.53;;;4.00;99.90;;;3.70;100.00;98207.19;5204375;28;20056;-59
2023/01/17 07:28:54;;;;;;;5.90;3.17;;;4.00;99.90;;;3.69;100.00;98212.31;5204385;28;20044;-60
2023/01/17 07:31:27;;;;;;;4.18;2.53;;;4.00;99.90;;;3.67;100.00;98202.00;5204260;28;20494;-59
2023/01/17 07:33:59;;;;;;;3.30;2.05;;;4.00;99.90;;;3.64;100.00;98217.38;5204485;28;20512;-58
2023/01/17 07:36:31;;;;;;;4.40;2.20;;;3.90;99.90;;;3.60;100.00;98209.56;5212670;28;20037;-59
2023/01/17 07:39:05;;;;;;;3.55;2.08;;;3.90;99.90;;;3.58;100.00;98213.81;5225110;28;20045;-59
2023/01/17 07:41:40;;;;;;;5.25;2.53;;;3.90;99.90;;;3.56;100.00;98215.47;5224946;28;20048;-59
2023/01/17 07:44:13;;;;;;;3.15;2.03;;;3.80;99.90;;;3.54;100.00;98212.88;5223886;28;20048;-59
2023/01/17 07:46:45;;;;;;;5.18;2.40;;;3.80;99.90;;;3.53;100.00;98226.59;5224511;28;20047;-58
2023/01/17 07:49:17;;;;;;;3.67;1.88;;;3.80;99.90;;;3.53;100.00;98212.00;5224664;28;20120;-60
2023/01/17 07:51:49;;;;;;;2.63;2.08;;;3.80;99.90;;;3.53;100.00;98213.72;5206874;28;20045;-60
2023/01/17 07:54:23;;;;;;;3.95;2.10;;;3.80;99.90;;;3.53;100.00;98217.16;5222075;28;20056;-59
2023/01/17 07:56:55;;;;;;;6.38;2.58;;;3.80;99.90;;;3.52;100.00;98223.16;5203685;28;20038;-57
2023/01/17 07:59:27;;;;;;;4.38;2.63;;;3.80;99.90;;;3.51;100.00;98221.38;5203860;28;20045;-59
2023/01/17 08:01:59;;;;;;;3.97;2.30;;;3.80;99.90;;;3.49;100.00;98223.06;5204545;28;20036;-59
2023/01/17 08:04:34;;;;;;;3.85;2.03;;;3.80;99.90;;;3.52;100.00;98223.16;5203926;28;20055;-58
2023/01/17 08:07:06;;;;;;;3.38;2.10;;;3.80;99.90;;;3.54;100.00;98221.47;5204454;28;20045;-59
2023/01/17 08:09:39;;;;;;;2.95;1.70;;;3.80;99.90;;;3.57;100.00;98218.09;5204551;28;20057;-60
2023/01/17 08:12:11;;;;;;;3.13;2.13;;;3.80;99.90;;;3.60;100.00;98223.31;5204457;28;20051;-60
2023/01/17 08:14:43;;;;;;;3.97;2.10;;;3.90;99.90;;;3.64;100.00;98213.94;5204216;28;20045;-60
2023/01/17 08:17:19;;;;;;;3.85;2.10;;;3.90;99.90;;;3.65;100.00;98221.72;5203144;28;20437;-59
2023/01/17 08:19:51;;;;;;;3.45;2.00;;;3.90;99.90;;;3.67;100.00;98219.16;5203927;28;20054;-60
2023/01/17 08:22:24;;;;;;;2.80;1.65;;;3.90;99.90;;;3.72;100.00;98214.97;5186036;28;20045;-60
2023/01/17 08:24:57;;;;;;;3.92;1.90;;;4.00;99.90;;;3.76;100.00;98221.91;5185952;28;20053;-60
2023/01/17 08:27:29;;;;;;;5.00;2.20;;;4.00;99.90;;;3.77;100.00;98213.34;5203547;28;20045;-60
2023/01/17 08:30:01;;;;;;;4.57;2.33;;;4.00;99.90;;;3.79;100.00;98214.28;5203617;28;20056;-60
2023/01/17 08:32:34;;;;;;;3.08;1.63;;;4.10;99.90;;;4.60;100.00;98214.06;5204281;28;20037;-61
2023/01/17 08:35:06;;;;;;;9.32;3.88;;;5.00;99.90;;;5.28;100.00;98209.97;5205311;28;20045;-59
2023/01/17 08:37:38;;;;;;;5.65;2.88;;;5.50;99.90;;;5.07;100.00;98210.53;5205391;28;20047;-59
2023/01/17 08:40:15;;;;;;;5.90;2.60;;;5.50;99.90;;;4.98;100.00;98215.56;5204315;28;20106;-60
2023/01/17 08:42:54;;;;;;;5.43;2.30;;;5.40;99.90;;;4.82;100.00;98209.25;5203773;28;20137;-60
2023/01/17 08:45:27;;;;;;;5.68;2.40;;;5.30;99.90;;;4.63;100.00;98219.31;5203489;28;20076;-60
2023/01/17 08:47:59;;;;;;;6.18;2.75;;;5.10;99.90;;;4.44;100.00;98224.97;5202281;28;20046;-60
2023/01/17 08:50:31;;;;;;;5.45;3.17;;;4.80;99.90;;;4.29;100.00;98235.84;5203293;28;20038;-60
2023/01/17 08:53:04;;;;;;;6.28;2.80;;;4.70;99.90;;;4.21;100.00;98226.25;5199665;28;20037;-59
2023/01/17 08:55:39;;;;;;;3.80;2.60;;;4.60;99.90;;;4.17;100.00;98227.03;5205407;28;20116;-59
2023/01/17 08:58:11;;;;;;;4.53;2.33;;;4.50;99.90;;;4.14;100.00;98226.97;5207110;28;20558;-59
2023/01/17 09:03:36;;;;;;;3.42;2.03;;;4.40;99.90;;;4.13;100.00;98240.72;5194899;28;20046;-59
2023/01/17 09:06:11;;;;;;;3.75;2.30;;;4.40;99.90;;;4.16;100.00;98248.50;5206263;28;20401;-58
2023/01/17 09:08:45;;;;;;;4.18;1.98;;;4.40;99.90;;;4.18;100.00;98239.09;5197456;28;20041;-58
2023/01/17 09:11:19;;;;;;;5.95;2.50;;;4.40;99.90;;;4.20;100.00;98248.59;5202597;28;20029;-59
2023/01/17 09:13:51;;;;;;;5.60;2.17;;;4.50;99.90;;;4.25;100.00;98244.41;5206018;28;20052;-58
2023/01/17 09:16:23;;;;;;;4.13;2.10;;;4.50;99.90;;;4.29;100.00;98242.72;5198868;28;20048;-59
2023/01/17 09:18:57;;;;;;;5.00;2.00;;;4.50;99.90;;;4.36;100.00;98242.00;5199584;28;20047;-59
2023/01/17 09:21:29;;;;;;;3.70;2.33;;;4.60;99.90;;;4.42;100.00;98229.22;5197461;28;20494;-58
2023/01/17 09:24:01;;;;;;;4.88;2.05;;;4.60;99.90;;;4.48;100.00;98234.50;5201606;28;20050;-58
2023/01/17 09:26:34;;;;;;;2.60;1.70;;;4.70;99.90;;;4.55;100.00;98238.91;5199212;28;20076;-59
2023/01/17 09:29:07;;;;;;;4.13;2.00;;;4.70;99.90;;;4.62;100.00;98242.47;5206241;28;20041;-59
2023/01/17 09:31:40;;;;;;;2.88;1.77;;;4.80;99.90;;;4.70;100.00;98233.19;5207957;28;20493;-59
2023/01/17 09:34:12;;;;;;;3.10;1.63;;;4.90;99.90;;;4.79;100.00;98229.88;5227187;28;20090;-61
2023/01/17 09:36:45;;;;;;;7.07;2.45;;;4.90;99.90;;;4.86;100.00;98226.56;5216458;28;20049;-61
2023/01/17 09:39:17;;;;;;;3.35;2.00;;;5.00;99.90;;;4.94;100.00;98230.13;5213170;28;20107;-60
2023/01/17 09:41:58;;;;;;;2.95;1.80;;;5.10;99.90;;;5.00;100.00;98230.22;5219130;28;20048;-61
2023/01/17 09:44:39;;;;;;;3.13;1.70;;;5.10;99.90;;;5.07;100.00;98237.22;5209736;28;20038;-61
2023/01/17 09:47:19;;;;;;;1.95;1.60;;;5.20;99.90;;;5.14;100.00;98239.03;5206629;28;20443;-60
2023/01/17 09:49:53;;;;;;;3.42;1.75;;;5.30;99.90;;;5.34;100.00;98246.22;5206186;28;20044;-60
2023/01/17 09:52:25;;;;;;;3.17;1.80;;;5.40;99.90;;;5.50;100.00;98248.19;5206682;28;20124;-59
2023/01/17 09:54:57;;;;;;;2.72;1.75;;;5.50;99.90;;;5.65;100.00;98247.53;5203891;28;20048;-60
2023/01/17 09:57:42;;;;;;;2.53;1.63;;;5.70;99.90;;;5.75;100.00;98248.56;5205824;28;20437;-60
2023/01/17 10:00:32;;;;;;;2.72;1.58;;;5.80;99.90;;;5.78;100.00;98253.75;5204470;28;20497;-59
2023/01/17 10:03:25;;;;;;;2.75;1.63;;;5.80;99.90;;;5.94;100.00;98245.38;5204714;28;20053;-60
2023/01/17 10:06:16;;;;;;;3.92;2.10;;;6.00;99.90;;;6.12;100.00;98250.75;5205701;28;20052;-59
2023/01/17 10:09:12;;;;;;;5.55;2.00;;;6.20;99.90;;;6.22;99.85;98249.16;5208117;28;20129;-60
2023/01/17 10:12:00;;;;;;;2.88;1.80;;;6.30;99.90;;;6.37;99.09;98256.22;5214685;28;20045;-60
2023/01/17 10:14:50;;;;;;;;;;;6.40;99.90;;;6.53;97.16;98256.41;5207196;28;20050;-60
2023/01/17 10:17:37;;;;;;;3.50;1.95;;;6.50;99.90;;;6.67;95.11;98259.13;5201896;28;19928;-60
2023/01/17 10:20:32;;;;;;;2.72;1.85;;;6.60;99.90;;;6.78;93.24;98256.63;5200013;28;20087;-60
2023/01/17 10:23:37;;;;;;;3.35;1.52;;;6.70;99.90;;;6.90;92.45;98254.16;5207101;28;20046;-61
2023/01/17 10:26:15;;;;;;;2.47;1.70;;;6.80;99.90;;;7.05;91.63;98248.28;5199866;28;20068;-60
2023/01/17 10:28:50;;;;;;;3.40;1.98;;;6.90;99.90;;;7.21;90.64;98254.44;5205211;28;20073;-61
2023/01/17 10:31:26;;;;;;;4.25;1.90;;;7.10;99.90;;;7.31;89.93;98257.13;5206767;28;20045;-61
2023/01/17 10:34:08;;;;;;;2.85;1.70;;;7.20;99.90;;;7.34;88.68;98251.06;5210828;28;20051;-61
2023/01/17 10:36:45;;;;;;;4.45;1.95;;;7.30;99.90;;;7.29;88.16;98248.44;5208474;28;20049;-59
2023/01/17 10:39:22;;;;;;;3.30;1.77;;;7.20;99.90;;;7.27;87.61;98238.94;5206461;28;20053;-61
2023/01/17 10:41:58;;;;;;;4.13;1.80;;;7.20;99.90;;;7.28;87.38;98249.31;5206343;28;20537;-60
2023/01/17 10:44:38;;;;;;;3.05;1.65;;;7.20;99.90;;;7.31;87.32;98241.56;5206492;28;20045;-60
2023/01/17 10:47:20;;;;;;;2.90;2.10;;;7.30;99.90;;;7.42;87.70;98245.94;5205422;28;20442;-61
2023/01/17 10:49:56;;;;;;;3.30;1.95;;;7.30;99.90;;;7.42;86.73;98239.03;5206267;28;20068;-60
2023/01/17 10:52:38;;;;;;;3.08;1.77;;;7.40;99.90;;;7.39;86.17;98240.75;5204442;28;20045;-61
2023/01/17 10:55:24;;;;;;;2.67;1.58;;;7.40;99.90;;;7.41;86.28;98241.63;5205655;28;20056;-60
2023/01/17 10:57:57;;;;;;;3.13;1.63;;;7.40;99.90;;;7.40;85.24;98243.34;5205490;28;20051;-61
2023/01/17 11:00:42;;;;;;;2.55;1.35;;;7.30;99.90;;;7.45;85.07;98245.97;5205282;28;20050;-59
2023/01/17 11:03:19;;;;;;;2.38;1.38;;;7.40;99.90;;;7.53;85.57;98242.56;5204102;28;20045;-61
2023/01/17 11:06:18;;;;;;;2.92;1.85;;;7.40;99.90;;;7.67;85.81;98234.88;5205243;28;20065;-61
2023/01/17 11:08:55;;;;;;;2.67;1.40;;;7.60;99.90;;;7.79;86.15;98234.06;5205125;28;20037;-60
2023/01/17 11:11:30;;;;;;;1.38;1.23;;;7.70;99.90;;;7.95;85.28;98245.38;5205262;28;20199;-61
2023/01/17 11:14:13;;;;;;;2.70;1.50;;;7.80;99.90;;;8.00;84.30;98230.69;5205055;28;20045;-61
2023/01/17 11:16:58;;;;;;;4.93;1.67;;;7.90;99.90;;;8.01;83.68;98219.47;5205242;28;20124;-61
2023/01/17 11:19:35;;;;;;;1.88;1.48;;;7.90;99.70;;;8.06;83.45;98230.72;5205042;28;20052;-59
2023/01/17 11:22:14;;;;;;;2.47;1.80;;;8.00;99.50;;;8.03;82.43;98222.94;5205154;28;20073;-58
2023/01/17 11:24:51;;;;;;;4.03;1.27;;;8.00;99.10;;;8.04;82.27;98224.69;5203662;28;20096;-59
2023/01/17 11:27:26;;;;;;;3.38;1.40;;;8.00;99.00;;;8.05;81.80;98216.03;5204915;28;20072;-59
2023/01/17 11:30:15;;;;;;;2.63;1.42;;;8.00;98.80;;;8.07;81.79;98214.31;5204433;28;20042;-59
2023/01/17 11:32:57;;;;;;;4.38;1.38;;;8.00;98.50;;;8.07;80.99;98209.97;5204732;28;20047;-59
2023/01/17 11:35:33;;;;;;;2.28;1.50;;;8.00;98.20;;;8.10;80.76;98220.38;5204952;28;20049;-59
2023/01/17 11:38:18;;;;;;;2.17;1.33;;;8.00;98.00;;;8.09;80.63;98217.78;5196775;28;20434;-59
2023/01/17 11:40:52;;;;;;;3.50;1.50;;;8.00;97.80;;;8.02;79.50;98216.00;5198608;28;20046;-59
2023/01/17 11:43:26;;;;;;;5.20;2.25;;;8.00;97.40;;;7.97;80.53;98212.56;5189204;28;20037;-59
2023/01/17 11:46:14;;;;;;;4.40;1.95;;;7.90;97.60;;;8.04;81.15;98211.72;5204473;28;20045;-60
2023/01/17 11:48:51;;;;;;;;;;;8.00;97.90;;;8.13;81.86;98216.91;5204686;28;20117;-59
2023/01/17 11:51:29;;;;;;;4.20;1.80;;;8.00;98.20;;;8.32;82.53;98204.88;5204356;28;19946;-60
2023/01/17 11:54:25;;;;;;;2.45;1.60;;;8.20;98.70;;;8.53;81.88;98224.84;5202971;28;20041;-60
2023/01/17 11:56:58;;;;;;;3.70;1.80;;;8.40;98.50;;;8.65;81.05;98206.69;5203980;28;20049;-59
2023/01/17 11:59:33;;;;;;;3.97;1.65;;;8.50;98.10;;;8.70;79.90;98213.63;5203732;28;20060;-60
2023/01/17 12:02:30;;;;;;;;;;;8.50;97.40;;;8.69;79.16;98217.09;5204219;28;20061;-59
2023/01/17 12:05:20;;;;;;;3.80;1.70;;;8.60;96.90;;;8.73;78.93;98206.69;5204248;28;19921;-60
2023/01/17 12:08:06;;;;;;;3.85;1.52;;;8.60;96.70;;;8.68;78.03;98193.72;5203413;28;20494;-59
2023/01/17 12:10:53;;;;;;;3.10;1.77;;;8.60;96.10;;;8.70;78.63;98197.19;5203859;28;20053;-59
2023/01/17 12:16:34;;;;;;;;;;;8.60;96.00;;;8.62;77.99;98193.72;5204028;28;20506;-59
2023/01/17 12:19:20;;;;;;;1.80;1.20;;;8.50;95.90;;;8.61;78.09;98197.19;5202700;28;20297;-59
2023/01/17 12:22:20;;;;;;;3.08;1.33;;;8.50;96.00;;;8.58;77.64;98185.03;5203343;28;20042;-59
2023/01/17 12:25:28;;;;;;;2.30;1.20;;;8.50;95.60;;;8.70;82.67;98181.59;5203702;28;20494;-57
2023/01/17 12:28:19;;;;;;;3.92;1.00;;;8.60;99.90;;;8.80;79.10;98174.66;5191937;28;20136;-59
2023/01/17 12:31:05;;;;;;;1.75;1.20;;;8.70;96.60;;;8.88;78.24;98181.63;5205320;28;20045;-59
2023/01/17 12:33:48;;;;;;;3.03;1.23;;;8.80;96.00;;;8.97;77.90;98183.34;5226757;28;20116;-60